Latest Weather Observations for Horn Island

IDQ60801

Issued at 7:32 pm EST Tuesday 9 February 2016 (issued every 30 minutes, with the page automatically refreshed every 10 minutes)

About weather observations | Map of weather stations | Latest weather observations for QLD | Other Formats
Station Details ID: 027058 Name: HORN ISLAND Lat: -10.58 Lon: 142.29 Height: 4.0 m
Data from the previous 72 hours. | See also: Recent months at Horn Island
Date/Time
EST
Temp
°C
App
Temp
°C
Dew
Point
Rel
Hum
%
Delta-T
°C
Wind Press
QNH
hPa
Press
MSL
hPa
Rain
since 9 am
mm
Dir
 
Spd
km/h
Gust
km/h
Spd
kts
Gust
kts
09/07:30pm 29.3 33.0 24.6 76 3.3 WNW 13 19 7 10 1007.3 - 0.0
09/07:00pm 29.6 33.3 24.5 74 3.6 WNW 13 20 7 11 1007.1 - 0.0
09/06:30pm 30.3 34.1 24.7 72 3.9 WNW 13 20 7 11 1006.5 - 0.0
09/06:00pm 30.5 33.8 25.1 73 3.8 WNW 17 24 9 13 1006.3 1006.3 0.0
09/05:30pm 30.7 33.6 25.1 72 3.9 NW 19 26 10 14 1006.2 - 0.0
09/05:00pm 31.2 34.2 25.3 71 4.2 NW 19 26 10 14 1005.9 - 0.0
09/04:30pm 31.3 34.7 25.2 70 4.3 NNW 17 24 9 13 1005.6 - 0.0
09/04:00pm 31.8 35.6 25.9 71 4.2 NW 17 24 9 13 1005.5 - 0.0
09/03:30pm 30.9 34.3 25.9 74 3.6 NNW 19 24 10 13 1005.7 - 0.0
09/03:00pm 31.1 34.3 25.9 74 3.7 NNW 20 26 11 14 1005.9 1005.9 0.0
09/02:30pm 31.2 34.5 26.0 74 3.7 NNW 20 26 11 14 1006.2 - 0.0
09/02:00pm 31.3 34.2 25.4 71 4.2 NNW 20 26 11 14 1006.7 - 0.0
09/01:30pm 31.1 33.9 25.0 70 4.3 NNW 19 22 10 12 1007.3 - 0.0
09/01:00pm 31.0 33.9 25.1 71 4.2 NNW 19 24 10 13 1007.9 - 0.0
09/12:30pm 31.1 33.9 25.0 70 4.3 NNW 19 22 10 12 1008.5 - 0.0
09/12:00pm 31.3 34.8 25.4 71 4.2 NNW 17 22 9 12 1009.2 1009.2 0.0
09/11:30am 31.4 34.9 25.5 71 4.2 NNW 17 20 9 11 1009.6 - 0.0
09/11:00am 31.3 35.5 25.4 71 4.2 N 13 17 7 9 1009.7 - 0.0
09/10:30am 31.2 35.3 25.8 73 3.8 N 15 19 8 10 1009.9 - 0.0
09/10:00am 31.0 35.2 25.4 72 4.0 NNW 13 17 7 9 1009.8 - 0.0
09/09:30am 31.0 36.0 26.0 74 3.6 NW 11 17 6 9 1009.7 - 0.0
09/09:00am 30.6 36.7 26.5 79 2.9 WNW 7 13 4 7 1009.7 1009.7 0.0
09/08:30am 29.9 36.4 27.1 85 2.0 WSW 7 11 4 6 1009.3 - 0.0
09/08:00am 28.9 35.4 27.1 90 1.3 S 7 9 4 5 1009.0 - 0.0
09/07:30am 26.9 33.2 25.9 94 0.7 SSW 4 7 2 4 1008.8 - 0.0
09/07:00am 26.1 32.8 25.4 96 0.5 CALM 0 0 0 0 1008.8 - 0.0
09/06:30am 25.8 32.2 24.9 95 0.6 CALM 0 6 0 3 1008.5 - 0.0
09/06:00am 25.8 32.2 24.9 95 0.6 CALM 0 0 0 0 1008.3 1008.3 0.0
09/05:30am 26.0 31.1 25.0 94 0.7 SE 7 7 4 4 1008.0 - 0.0
09/05:00am 25.8 31.0 24.8 94 0.7 SSE 6 7 3 4 1007.6 - 0.0
09/04:30am 25.8 32.0 24.6 93 0.8 CALM 0 0 0 0 1007.5 - 0.0
09/04:00am 25.8 31.1 24.4 92 1.0 S 4 7 2 4 1007.3 - 0.0
09/03:30am 26.2 32.5 24.8 92 1.0 CALM 0 0 0 0 1007.6 - 0.0
09/03:00am 26.1 32.2 24.5 91 1.1 CALM 0 0 0 0 1007.8 1007.8 0.0
09/02:30am 26.3 32.4 24.5 90 1.2 CALM 0 0 0 0 1007.7 - 0.0
09/02:00am 26.3 31.9 24.3 89 1.4 SE 2 6 1 3 1007.9 - 0.0
09/01:30am 26.5 31.3 24.5 89 1.4 SE 7 7 4 4 1008.2 - 0.0
09/01:00am 26.8 33.0 24.6 88 1.5 CALM 0 0 0 0 1008.3 - 0.0
09/12:30am 26.7 32.8 24.5 88 1.5 CALM 0 0 0 0 1008.5 - 0.0
09/12:00am 26.7 32.8 24.4 87 1.6 CALM 0 0 0 0 1008.7 1008.7 0.0
 
Date/Time
EST
Temp
°C
App
Temp
°C
Dew
Point
Rel
Hum
%
Delta-T
°C
Wind Press
QNH
hPa
Press
MSL
hPa
Rain
since 9 am
mm
Dir
 
Spd
km/h
Gust
km/h
Spd
kts
Gust
kts
08/11:30pm 26.7 32.3 24.2 86 1.7 W 2 7 1 4 1008.8 - 0.0
08/11:00pm 26.9 32.9 24.2 85 1.9 CALM 0 4 0 2 1009.1 - 0.0
08/10:30pm 26.9 31.9 23.8 83 2.1 SW 4 7 2 4 1009.3 - 0.0
08/10:00pm 27.3 32.0 24.0 82 2.3 S 6 7 3 4 1009.3 - 0.0
08/09:30pm 27.7 32.4 23.9 80 2.6 SSW 6 7 3 4 1009.0 - 0.0
08/09:00pm 28.1 32.9 24.1 79 2.8 S 6 9 3 5 1008.6 1008.6 0.0
08/08:30pm 28.5 32.7 24.1 77 3.0 SW 9 13 5 7 1008.0 - 0.0
08/08:00pm 28.8 33.0 24.1 76 3.3 WSW 9 13 5 7 1007.4 - 0.0
08/07:30pm 28.9 32.9 23.8 74 3.5 W 9 13 5 7 1007.2 - 0.0
08/07:00pm 29.3 32.9 23.7 72 3.9 W 11 17 6 9 1007.1 - 0.0
08/06:30pm 29.9 32.3 23.6 69 4.3 W 17 22 9 12 1007.0 - 0.0
08/06:00pm 30.7 33.8 24.1 68 4.6 W 15 24 8 13 1006.7 1006.7 0.0
08/05:30pm 31.1 33.3 24.0 66 4.9 W 19 24 10 13 1006.5 - 0.0
08/05:00pm 31.1 33.3 24.0 66 4.9 WNW 19 28 10 15 1006.3 - 0.0
08/04:30pm 32.3 35.5 24.9 65 5.2 WNW 17 26 9 14 1006.1 - 0.0
08/04:00pm 32.3 35.1 24.9 65 5.2 NW 19 26 10 14 1006.1 - 0.0
08/03:30pm 32.3 35.9 25.6 67 4.8 NW 17 24 9 13 1006.5 - 0.0
08/03:00pm 31.4 34.8 25.3 70 4.3 NW 17 24 9 13 1006.9 1006.9 0.0
08/02:30pm 31.9 35.8 26.0 71 4.2 WNW 17 24 9 13 1007.4 - 0.0
08/02:00pm 31.2 35.3 25.8 73 3.8 NNW 15 20 8 11 1007.8 - 0.0
08/01:30pm 31.0 35.2 25.4 72 4.0 NNW 13 19 7 10 1008.5 - 0.0
08/01:00pm 31.2 34.7 25.5 71 4.0 NNW 17 22 9 12 1009.0 - 0.0
08/12:30pm 30.9 34.7 25.3 72 4.0 NNW 15 20 8 11 1009.6 - 0.0
08/12:00pm 31.1 35.3 25.9 74 3.7 NNW 15 20 8 11 1010.2 1010.2 0.0
08/11:30am 30.9 35.1 25.9 74 3.6 NNW 15 20 8 11 1010.6 - 0.0
08/11:00am 30.5 34.2 25.8 76 3.3 NNW 17 20 9 11 1010.6 - 0.0
08/10:30am 30.7 35.6 25.8 75 3.5 NNW 11 17 6 9 1010.8 - 0.0
08/10:00am 30.3 35.2 25.8 77 3.2 NW 11 15 6 8 1010.9 - 0.0
08/09:30am 30.3 35.3 26.5 80 2.7 NW 13 17 7 9 1010.8 - 0.0
08/09:00am 30.2 35.9 27.0 83 2.3 NW 11 15 6 8 1010.5 1010.5 0.0
08/08:30am 30.1 37.1 28.3 90 1.3 WSW 9 13 5 7 1010.1 - 0.0
08/08:00am 28.3 36.2 27.2 94 0.8 CALM 0 0 0 0 1009.9 - 0.0
08/07:30am 27.1 34.1 26.4 96 0.5 SW 2 6 1 3 1009.4 - 0.0
08/07:00am 25.9 32.4 25.0 95 0.6 CALM 0 0 0 0 1009.3 - 0.0
08/06:30am 25.6 31.9 24.7 95 0.6 CALM 0 0 0 0 1008.9 - 0.0
08/06:00am 25.5 31.6 24.5 94 0.7 CALM 0 0 0 0 1008.8 1008.8 0.0
08/05:30am 25.8 32.1 24.8 94 0.7 CALM 0 0 0 0 1008.7 - 0.0
08/05:00am 25.8 32.0 24.6 93 0.8 CALM 0 0 0 0 1008.4 - 0.0
08/04:30am 26.0 32.3 24.8 93 0.8 CALM 0 0 0 0 1008.1 - 0.0
08/04:00am 26.0 32.2 24.6 92 1.0 CALM 0 0 0 0 1008.1 - 0.0
08/03:30am 26.2 32.5 24.8 92 1.0 CALM 0 0 0 0 1008.2 - 0.0
08/03:00am 26.1 31.9 24.5 91 1.1 SW 2 7 1 4 1008.1 1008.1 0.0
08/02:30am 26.1 31.5 24.5 91 1.1 SW 4 7 2 4 1008.3 - 0.0
08/02:00am 26.2 31.1 24.4 90 1.2 SW 6 7 3 4 1008.8 - 0.0
08/01:30am 26.7 33.1 24.9 90 1.3 CALM 0 0 0 0 1009.1 - 0.0
08/01:00am 26.6 32.8 24.6 89 1.4 CALM 0 0 0 0 1009.2 - 0.0
08/12:30am 26.6 32.7 24.4 88 1.5 CALM 0 0 0 0 1009.5 - 0.0
08/12:00am 26.8 33.0 24.6 88 1.5 CALM 0 0 0 0 1009.6 1009.6 0.0
 
Date/Time
EST
Temp
°C
App
Temp
°C
Dew
Point
Rel
Hum
%
Delta-T
°C
Wind Press
QNH
hPa
Press
MSL
hPa
Rain
since 9 am
mm
Dir
 
Spd
km/h
Gust
km/h
Spd
kts
Gust
kts
07/11:30pm 26.9 33.0 24.5 87 1.7 CALM 0 0 0 0 1009.8 - 0.0
07/11:00pm 26.9 31.8 24.4 86 1.7 SW 6 7 3 4 1009.6 - 0.0
07/10:30pm 27.0 31.9 24.3 85 1.9 SW 6 7 3 4 1009.4 - 0.0
07/10:00pm 27.2 33.2 24.3 84 2.0 CALM 0 0 0 0 1009.4 - 0.0
07/09:30pm 27.3 31.9 24.2 83 2.1 WSW 7 7 4 4 1009.0 - 0.0
07/09:00pm 27.4 32.1 24.0 82 2.3 WSW 6 7 3 4 1008.7 1008.7 0.0
07/08:30pm 27.6 32.0 23.8 80 2.6 SW 7 9 4 5 1008.4 - 0.0
07/08:00pm 28.0 32.0 23.8 78 2.9 SW 9 11 5 6 1008.0 - 0.0
07/07:30pm 28.5 33.0 23.9 76 3.2 WSW 7 11 4 6 1008.0 - 0.0
07/07:00pm 28.9 32.7 24.0 75 3.4 W 11 15 6 8 1007.6 - 0.0
07/06:30pm 29.5 32.7 24.4 74 3.6 W 15 20 8 11 1007.2 - 0.0
07/06:00pm 30.0 33.1 24.2 71 4.0 W 15 22 8 12 1006.8 1006.8 0.0
07/05:30pm 30.5 33.4 24.4 70 4.3 W 17 26 9 14 1006.5 - 0.0
07/05:00pm 30.6 33.1 24.5 70 4.3 W 19 30 10 16 1006.2 - 0.0
07/04:30pm 30.7 34.0 25.1 72 3.9 W 17 28 9 15 1006.0 - 0.0
07/04:00pm 30.8 33.8 25.2 72 4.0 WNW 19 26 10 14 1006.0 - 0.0
07/03:30pm 31.3 35.1 25.9 73 3.8 WNW 17 26 9 14 1006.1 - 0.0
07/03:00pm 31.0 34.2 25.6 73 3.8 NW 19 24 10 13 1006.5 1006.5 0.0
07/02:30pm 31.1 34.4 25.7 73 3.8 NW 19 28 10 15 1006.5 - 0.0
07/02:00pm 30.6 34.0 25.2 73 3.8 WNW 17 26 9 14 1006.7 - 0.0
07/01:30pm 30.7 34.1 25.3 73 3.8 WNW 17 28 9 15 1007.1 - 0.0
07/01:00pm 30.7 34.2 25.5 74 3.7 NW 17 22 9 12 1007.4 - 0.0
07/12:30pm 29.9 33.9 25.6 78 3.0 NNW 15 20 8 11 1007.8 - 0.0
07/12:00pm 30.0 33.9 26.0 79 2.8 NNW 17 22 9 12 1008.3 1008.3 0.0
07/11:30am 30.4 34.1 26.3 79 2.9 NNW 19 28 10 15 1008.6 - 0.0
07/11:00am 30.3 34.3 26.7 81 2.6 NW 19 30 10 16 1008.8 - 0.0
07/10:30am 29.6 33.3 26.6 84 2.1 NW 20 26 11 14 1009.0 - 0.0
07/10:00am 28.8 32.8 26.2 86 1.8 NNW 17 24 9 13 1009.2 - 0.0
07/09:30am 28.3 33.0 26.1 88 1.6 NNW 13 22 7 12 1009.6 - 0.0
07/09:00am 27.2 31.7 25.2 89 1.4 NNW 11 15 6 8 1009.7 1009.7 9.6
07/08:30am 26.9 30.9 25.1 90 1.3 NNW 13 19 7 10 1009.7 - 9.6
07/08:00am 26.3 29.2 24.5 90 1.2 NW 17 24 9 13 1009.4 - 9.6
07/07:30am 25.8 30.1 24.2 91 1.1 WNW 9 15 5 8 1009.1 - 9.6
07/07:00am 25.0 28.4 23.4 91 1.1 WNW 11 19 6 10 1008.7 - 9.6
07/06:30am 25.3 29.0 23.9 92 1.0 NNW 11 19 6 10 1008.7 - 9.6
07/06:00am 24.4 28.2 22.8 91 1.1 E 7 9 4 5 1008.5 1008.5 9.6
07/05:30am 23.9 28.4 22.2 90 1.1 ENE 2 7 1 4 1008.2 - 9.6
07/05:04am 23.6 26.4 21.5 88 1.4 ESE 9 15 5 8 1007.6 - 9.6
07/05:00am 23.6 26.7 21.5 88 1.4 ENE 7 11 4 6 1007.7 - 9.6
07/04:30am 24.0 24.7 21.5 86 1.7 NNW 20 32 11 17 1007.7 - 4.4
07/04:28am 24.4 25.6 22.1 87 1.5 NNW 19 28 10 15 1007.6 - 4.2
07/04:15am 25.3 27.6 22.8 86 1.7 NNW 15 22 8 12 1007.5 - 2.8
07/04:05am 25.1 26.1 22.2 84 1.9 NW 20 33 11 18 1007.4 - 2.4
07/04:00am 25.4 26.3 22.7 85 1.8 NW 22 33 12 18 1007.1 - 1.8
07/03:30am 26.0 28.5 23.1 84 2.0 SW 15 20 8 11 1007.0 - 1.4
07/03:00am 28.3 31.1 25.3 84 2.1 NW 20 28 11 15 1006.8 1006.8 1.0
07/02:30am 28.4 31.4 25.2 83 2.2 NW 19 32 10 17 1007.2 - 1.0
07/02:00am 28.5 32.0 25.5 84 2.1 NW 17 24 9 13 1007.4 - 1.0
07/01:30am 28.5 32.6 25.7 85 2.0 NW 15 20 8 11 1007.8 - 1.0
07/01:00am 27.4 32.4 24.8 86 1.8 WNW 7 11 4 6 1007.8 - 1.0
07/12:30am 27.4 32.3 24.7 85 1.9 NW 7 11 4 6 1008.3 - 1.0
07/12:00am 27.4 31.1 24.5 84 2.0 NW 13 20 7 11 1008.5 1008.5 1.0
 
Date/Time
EST
Temp
°C
App
Temp
°C
Dew
Point
Rel
Hum
%
Delta-T
°C
Wind Press
QNH
hPa
Press
MSL
hPa
Rain
since 9 am
mm
Dir
 
Spd
km/h
Gust
km/h
Spd
kts
Gust
kts
06/11:30pm 28.0 33.0 25.4 86 1.8 WNW 9 13 5 7 1008.7 - 1.0
06/11:00pm 27.7 32.9 25.1 86 1.8 WNW 7 11 4 6 1008.8 - 1.0
06/10:30pm 27.6 32.3 25.0 86 1.8 WNW 9 13 5 7 1008.8 - 1.0
06/10:00pm 27.8 31.8 25.0 85 2.0 NW 13 17 7 9 1008.5 - 1.0
06/09:30pm 27.6 32.0 25.0 86 1.8 WNW 11 15 6 8 1008.1 - 1.0
06/09:00pm 26.6 31.1 23.9 85 1.9 WNW 7 11 4 6 1007.8 1007.8 1.0
06/08:30pm 27.0 31.8 24.1 84 2.0 W 6 7 3 4 1007.4 - 1.0
06/08:00pm 27.2 32.2 24.5 85 1.9 WNW 6 7 3 4 1007.0 - 1.0

Other Formats:

Comma delimited format used in spreadsheet applications
http://www.bom.gov.au/fwo/IDQ60801/IDQ60801.94174.axf

JavaScript Object Notation format (JSON) in row-major order
http://www.bom.gov.au/fwo/IDQ60801/IDQ60801.94174.json